Tucunduva, Brazil
Current Conditions -  °F | °C
As of 3:00 PM on Friday 31 Oct 2014 (Local Time) from SGEN Reporting Station
Broken Clouds Broken Clouds  
Wind Chill: 82°   Ceiling: 1500
Heat Index: 86°   Visibility: 6mi
Dew Point: 70°   Wind: 12mph
Humidity: 66%   Direction: 50°NE
Pressure: 29.8"   Gusts: NA
Location:  27.66°S, 54.44°W
Report Text: SGEN 311700Z 05010KT 9999 BKN015 SCT100 28/21 Q1009
Loading
Personal Weather Stations






























Interactive Weather Map
Tropical Storm Tracking
New forecast layout! Learn more

10-Day Weather Forecast

Advertisements
Track Severe Weather on mobile